Terminal Aerodrome Forecast
Issued by NWS

Current Version | Previous Version | Text Only | Print | Product List | Glossary On
Versions: 1 2 3 4 5 6 7 8 9 10 11 12 13 14 15
000
FTUS43 KBIS 181100
TAFDIK
TAF
KDIK 181120Z 1812/1912 14009KT P6SM SCT100
     FM181800 20010KT P6SM OVC070
     FM182200 30018G26KT P6SM -RA OVC060
     FM190000 33024G32KT P6SM -RA OVC060
     FM190300 35015G25KT P6SM BKN080=

USA.gov is the U.S. government's official web portal to all federal, state and local government web resources and services.